SUN9LL EGGD-LXGB
Flight info
| Callsign | SUN9LL |
|---|---|
| Flight time | 2h 19m |
| Altitude | 36000 |
| Route | EXMOR N92 DAWLY N864 BHD DCT SALCO DCT NOVAN DCT DELOG DCT CRISA DCT VULPE DCT MAR N864 PIMOS |
| Aircraft | B738/M-SDE2E3FGHIRWXY/LB1 |
Departure
| Time | 2026-05-04 18:58 |
|---|---|
| Airport | Bristol Airport (EGGD) |
Arrival
| Time | 2026-05-04 21:17 |
|---|---|
| Airport | Gibraltar Airport (LXGB) |
| Time | Latitude | Longitude | Altitude | Speed | Heading |
|---|---|---|---|---|---|
| 2026-05-04 18:24 | 51.38518 | -2.71141 | 610 ft | 0 kts | 356° |
| 2026-05-04 18:51 | 51.38516 | -2.71141 | 610 ft | 1 kts | 356° |
| 2026-05-04 18:52 | 51.38500 | -2.71139 | 616 ft | 3 kts | 356° |
| 2026-05-04 18:52 | 51.38480 | -2.71138 | 616 ft | 3 kts | 348° |
| 2026-05-04 18:52 | 51.38464 | -2.71127 | 628 ft | 3 kts | 302° |
| 2026-05-04 18:52 | 51.38459 | -2.71104 | 629 ft | 2 kts | 267° |
| 2026-05-04 18:53 | 51.38460 | -2.71086 | 624 ft | 2 kts | 266° |
| 2026-05-04 18:53 | 51.38460 | -2.71081 | 623 ft | 1 kts | 266° |
| 2026-05-04 18:54 | 51.38459 | -2.71114 | 629 ft | 8 kts | 266° |
| 2026-05-04 18:55 | 51.38453 | -2.71267 | 626 ft | 19 kts | 267° |
| 2026-05-04 18:55 | 51.38431 | -2.71850 | 605 ft | 27 kts | 270° |
| 2026-05-04 18:55 | 51.38428 | -2.72141 | 605 ft | 25 kts | 264° |
| 2026-05-04 18:56 | 51.38417 | -2.72413 | 610 ft | 24 kts | 266° |
| 2026-05-04 18:56 | 51.38406 | -2.72672 | 618 ft | 24 kts | 266° |
| 2026-05-04 18:56 | 51.38396 | -2.72932 | 611 ft | 24 kts | 266° |
| 2026-05-04 18:56 | 51.38386 | -2.73190 | 608 ft | 20 kts | 265° |
| 2026-05-04 18:57 | 51.38307 | -2.73334 | 625 ft | 19 kts | 186° |
| 2026-05-04 18:57 | 51.38212 | -2.73298 | 634 ft | 11 kts | 114° |
| 2026-05-04 18:57 | 51.38224 | -2.73038 | 631 ft | 55 kts | 86° |
| 2026-05-04 18:57 | 51.38265 | -2.71998 | 626 ft | 131 kts | 87° |
| 2026-05-04 18:58 | 51.38334 | -2.70203 | 702 ft | 184 kts | 86° |
| 2026-05-04 18:58 | 51.38401 | -2.68238 | 1886 ft | 169 kts | 85° |
| 2026-05-04 18:58 | 51.38454 | -2.66396 | 2985 ft | 168 kts | 85° |
| 2026-05-04 18:58 | 51.38512 | -2.64415 | 3397 ft | 192 kts | 85° |
| 2026-05-04 18:59 | 51.38582 | -2.62143 | 3622 ft | 215 kts | 85° |
| 2026-05-04 18:59 | 51.38662 | -2.59588 | 3892 ft | 236 kts | 86° |
| 2026-05-04 18:59 | 51.38698 | -2.56838 | 4139 ft | 258 kts | 94° |
| 2026-05-04 18:59 | 51.38161 | -2.54089 | 4761 ft | 270 kts | 122° |
| 2026-05-04 19:00 | 51.36800 | -2.52001 | 5641 ft | 271 kts | 151° |
| 2026-05-04 19:00 | 51.34997 | -2.51196 | 6516 ft | 271 kts | 180° |
| 2026-05-04 19:00 | 51.33153 | -2.51748 | 7345 ft | 271 kts | 199° |
| 2026-05-04 19:00 | 51.31388 | -2.52834 | 8118 ft | 275 kts | 202° |
| 2026-05-04 19:01 | 51.29639 | -2.54004 | 8893 ft | 279 kts | 202° |
| 2026-05-04 19:01 | 51.27836 | -2.55227 | 9637 ft | 283 kts | 202° |
| 2026-05-04 19:01 | 51.26028 | -2.56451 | 10437 ft | 284 kts | 202° |
| 2026-05-04 19:01 | 51.24140 | -2.57717 | 10685 ft | 306 kts | 201° |
| 2026-05-04 19:02 | 51.22101 | -2.59075 | 10870 ft | 329 kts | 201° |
| 2026-05-04 19:02 | 51.19941 | -2.60503 | 11321 ft | 341 kts | 202° |
| 2026-05-04 19:02 | 51.17730 | -2.61960 | 11970 ft | 345 kts | 202° |
| 2026-05-04 19:02 | 51.15516 | -2.63414 | 12770 ft | 346 kts | 201° |
| 2026-05-04 19:03 | 51.13284 | -2.64875 | 13545 ft | 348 kts | 201° |
| 2026-05-04 19:03 | 51.11025 | -2.66350 | 14155 ft | 353 kts | 201° |
| 2026-05-04 19:03 | 51.08741 | -2.67838 | 14782 ft | 356 kts | 201° |
| 2026-05-04 19:03 | 51.06438 | -2.69336 | 15428 ft | 359 kts | 201° |
| 2026-05-04 19:04 | 51.04115 | -2.70845 | 16087 ft | 362 kts | 201° |
| 2026-05-04 19:04 | 51.01771 | -2.72366 | 16678 ft | 366 kts | 201° |
| 2026-05-04 19:04 | 50.99397 | -2.73904 | 17265 ft | 370 kts | 201° |
| 2026-05-04 19:04 | 50.97013 | -2.75446 | 17919 ft | 372 kts | 201° |
| 2026-05-04 19:05 | 50.94604 | -2.77004 | 18514 ft | 375 kts | 201° |
| 2026-05-04 19:05 | 50.92172 | -2.78575 | 19023 ft | 379 kts | 201° |
| 2026-05-04 19:05 | 50.89722 | -2.80155 | 19595 ft | 380 kts | 201° |
| 2026-05-04 19:05 | 50.87274 | -2.81732 | 20206 ft | 381 kts | 201° |
| 2026-05-04 19:06 | 50.84826 | -2.83308 | 20880 ft | 379 kts | 201° |
| 2026-05-04 19:06 | 50.82380 | -2.84880 | 21432 ft | 381 kts | 201° |
| 2026-05-04 19:06 | 50.79909 | -2.86466 | 21925 ft | 384 kts | 201° |
| 2026-05-04 19:06 | 50.77425 | -2.88059 | 22456 ft | 386 kts | 201° |
| 2026-05-04 19:07 | 50.75775 | -2.89116 | 22817 ft | 387 kts | 201° |
| 2026-05-04 19:07 | 50.73271 | -2.90719 | 23339 ft | 389 kts | 201° |
| 2026-05-04 19:07 | 50.70763 | -2.92322 | 23808 ft | 391 kts | 201° |
| 2026-05-04 19:07 | 50.68231 | -2.93939 | 24208 ft | 393 kts | 201° |
| 2026-05-04 19:08 | 50.64866 | -2.96085 | 24718 ft | 396 kts | 200° |
| 2026-05-04 19:08 | 50.62308 | -2.97714 | 25116 ft | 398 kts | 200° |
| 2026-05-04 19:08 | 50.60575 | -2.98817 | 25384 ft | 399 kts | 200° |
| 2026-05-04 19:08 | 50.57997 | -3.00455 | 25760 ft | 401 kts | 200° |
| 2026-05-04 19:09 | 50.56079 | -3.01673 | 26052 ft | 402 kts | 200° |
| 2026-05-04 19:09 | 50.53541 | -3.03282 | 26413 ft | 404 kts | 200° |
| 2026-05-04 19:09 | 50.50937 | -3.04931 | 26772 ft | 406 kts | 199° |
| 2026-05-04 19:09 | 50.48311 | -3.06593 | 27118 ft | 408 kts | 199° |
| 2026-05-04 19:10 | 50.45679 | -3.08257 | 27468 ft | 409 kts | 199° |
| 2026-05-04 19:10 | 50.43925 | -3.09365 | 27696 ft | 411 kts | 199° |
| 2026-05-04 19:10 | 50.40363 | -3.11611 | 28143 ft | 413 kts | 199° |
| 2026-05-04 19:10 | 50.37694 | -3.13292 | 28483 ft | 415 kts | 199° |
| 2026-05-04 19:11 | 50.35019 | -3.14974 | 28749 ft | 418 kts | 199° |
| 2026-05-04 19:11 | 50.32324 | -3.16667 | 29048 ft | 420 kts | 199° |
| 2026-05-04 19:11 | 50.29612 | -3.18369 | 29372 ft | 421 kts | 199° |
| 2026-05-04 19:11 | 50.26892 | -3.20074 | 29680 ft | 422 kts | 199° |
| 2026-05-04 19:12 | 50.24153 | -3.21788 | 29990 ft | 424 kts | 199° |
| 2026-05-04 19:12 | 50.18657 | -3.25221 | 30359 ft | 430 kts | 199° |
| 2026-05-04 19:12 | 50.15890 | -3.26948 | 30664 ft | 429 kts | 199° |
| 2026-05-04 19:13 | 50.13118 | -3.28675 | 30923 ft | 431 kts | 199° |
| 2026-05-04 19:13 | 50.10323 | -3.30414 | 31117 ft | 433 kts | 199° |
| 2026-05-04 19:13 | 50.07539 | -3.32143 | 31360 ft | 434 kts | 199° |
| 2026-05-04 19:13 | 50.04733 | -3.33885 | 31640 ft | 434 kts | 199° |
| 2026-05-04 19:14 | 50.02002 | -3.35578 | 31884 ft | 435 kts | 199° |
| 2026-05-04 19:14 | 49.99188 | -3.37319 | 32104 ft | 436 kts | 199° |
| 2026-05-04 19:14 | 49.96367 | -3.39063 | 32345 ft | 437 kts | 199° |
| 2026-05-04 19:14 | 49.93555 | -3.40799 | 32603 ft | 437 kts | 200° |
| 2026-05-04 19:15 | 49.90732 | -3.42540 | 32832 ft | 438 kts | 200° |
| 2026-05-04 19:15 | 49.87896 | -3.44287 | 33083 ft | 439 kts | 200° |
| 2026-05-04 19:15 | 49.85057 | -3.46036 | 33322 ft | 439 kts | 200° |
| 2026-05-04 19:15 | 49.82246 | -3.47765 | 33538 ft | 440 kts | 200° |
| 2026-05-04 19:16 | 49.79362 | -3.49535 | 33767 ft | 441 kts | 200° |
| 2026-05-04 19:16 | 49.76508 | -3.51280 | 33998 ft | 441 kts | 199° |
| 2026-05-04 19:16 | 49.73591 | -3.52671 | 34166 ft | 441 kts | 191° |
| 2026-05-04 19:16 | 49.70564 | -3.53334 | 34362 ft | 439 kts | 181° |
| 2026-05-04 19:17 | 49.67510 | -3.53492 | 34600 ft | 438 kts | 181° |
| 2026-05-04 19:17 | 49.64507 | -3.53608 | 34828 ft | 438 kts | 181° |
| 2026-05-04 19:17 | 49.61419 | -3.53724 | 34980 ft | 439 kts | 181° |
| 2026-05-04 19:17 | 49.58404 | -3.53846 | 35133 ft | 440 kts | 181° |
| 2026-05-04 19:18 | 49.55345 | -3.53983 | 35327 ft | 440 kts | 181° |
| 2026-05-04 19:18 | 49.52307 | -3.54129 | 35492 ft | 440 kts | 181° |
| 2026-05-04 19:18 | 49.49233 | -3.54283 | 35515 ft | 445 kts | 181° |
| 2026-05-04 19:19 | 49.43013 | -3.54607 | 35629 ft | 451 kts | 181° |
| 2026-05-04 19:19 | 49.39870 | -3.54772 | 35731 ft | 452 kts | 181° |
| 2026-05-04 19:19 | 49.36799 | -3.54933 | 35887 ft | 452 kts | 181° |
| 2026-05-04 19:19 | 49.33850 | -3.55087 | 36059 ft | 452 kts | 181° |
| 2026-05-04 19:20 | 49.30881 | -3.55242 | 36210 ft | 452 kts | 181° |
| 2026-05-04 19:20 | 49.27906 | -3.55398 | 36339 ft | 453 kts | 181° |
| 2026-05-04 19:20 | 49.24820 | -3.55558 | 36360 ft | 456 kts | 181° |
| 2026-05-04 19:20 | 49.21673 | -3.55721 | 36508 ft | 456 kts | 181° |
| 2026-05-04 19:21 | 49.18508 | -3.55885 | 36730 ft | 454 kts | 181° |
| 2026-05-04 19:21 | 49.15350 | -3.56048 | 36895 ft | 454 kts | 181° |
| 2026-05-04 19:21 | 49.12188 | -3.56211 | 36989 ft | 455 kts | 181° |
| 2026-05-04 19:22 | 49.05837 | -3.56539 | 37008 ft | 457 kts | 181° |
| 2026-05-04 19:22 | 48.99485 | -3.56865 | 37009 ft | 456 kts | 181° |
| 2026-05-04 19:23 | 48.93154 | -3.57190 | 37011 ft | 455 kts | 181° |
| 2026-05-04 19:23 | 48.86824 | -3.57514 | 37014 ft | 454 kts | 181° |
| 2026-05-04 19:24 | 48.80509 | -3.57836 | 37023 ft | 454 kts | 181° |
| 2026-05-04 19:24 | 48.74202 | -3.58157 | 37016 ft | 453 kts | 181° |
| 2026-05-04 19:25 | 48.67898 | -3.58477 | 37020 ft | 453 kts | 181° |
| 2026-05-04 19:25 | 48.61602 | -3.58796 | 37019 ft | 453 kts | 181° |
| 2026-05-04 19:26 | 48.55299 | -3.59114 | 37007 ft | 453 kts | 181° |
| 2026-05-04 19:26 | 48.48995 | -3.59432 | 36999 ft | 453 kts | 181° |
| 2026-05-04 19:27 | 48.42689 | -3.59749 | 36997 ft | 454 kts | 181° |
| 2026-05-04 19:27 | 48.36369 | -3.60066 | 37004 ft | 454 kts | 181° |
| 2026-05-04 19:28 | 48.30084 | -3.60380 | 36998 ft | 455 kts | 181° |
| 2026-05-04 19:28 | 48.23752 | -3.60696 | 36987 ft | 456 kts | 181° |
| 2026-05-04 19:29 | 48.17408 | -3.61012 | 36992 ft | 456 kts | 181° |
| 2026-05-04 19:29 | 48.11064 | -3.61327 | 36994 ft | 456 kts | 181° |
| 2026-05-04 19:30 | 48.04719 | -3.61641 | 36988 ft | 456 kts | 181° |
| 2026-05-04 19:30 | 47.98374 | -3.61954 | 36992 ft | 456 kts | 181° |
| 2026-05-04 19:31 | 47.92037 | -3.62267 | 36999 ft | 455 kts | 182° |
| 2026-05-04 19:31 | 47.85707 | -3.62578 | 36988 ft | 455 kts | 182° |
| 2026-05-04 19:32 | 47.79380 | -3.62888 | 36994 ft | 454 kts | 182° |
| 2026-05-04 19:32 | 47.73065 | -3.63197 | 36989 ft | 454 kts | 182° |
| 2026-05-04 19:33 | 47.66780 | -3.63504 | 36988 ft | 453 kts | 182° |
| 2026-05-04 19:33 | 47.60491 | -3.63810 | 36987 ft | 452 kts | 182° |
| 2026-05-04 19:34 | 47.55628 | -3.64046 | 36995 ft | 451 kts | 182° |
| 2026-05-04 19:34 | 47.49703 | -3.64333 | 37001 ft | 450 kts | 182° |
| 2026-05-04 19:35 | 47.43449 | -3.64636 | 36986 ft | 449 kts | 182° |
| 2026-05-04 19:35 | 47.37209 | -3.64937 | 36991 ft | 448 kts | 182° |
| 2026-05-04 19:36 | 47.30975 | -3.65237 | 36989 ft | 448 kts | 181° |
| 2026-05-04 19:36 | 47.24755 | -3.65536 | 36993 ft | 448 kts | 181° |
| 2026-05-04 19:37 | 47.18528 | -3.65834 | 36995 ft | 448 kts | 181° |
| 2026-05-04 19:37 | 47.12293 | -3.66132 | 36998 ft | 448 kts | 181° |
| 2026-05-04 19:38 | 47.06070 | -3.66429 | 36995 ft | 449 kts | 182° |
| 2026-05-04 19:38 | 46.99822 | -3.66726 | 36997 ft | 450 kts | 182° |
| 2026-05-04 19:39 | 46.93560 | -3.67023 | 36995 ft | 450 kts | 182° |
| 2026-05-04 19:39 | 46.87292 | -3.67320 | 37015 ft | 451 kts | 182° |
| 2026-05-04 19:40 | 46.81057 | -3.67615 | 37000 ft | 451 kts | 182° |
| 2026-05-04 19:40 | 46.74782 | -3.67910 | 36999 ft | 452 kts | 182° |
| 2026-05-04 19:41 | 46.68497 | -3.68206 | 36998 ft | 452 kts | 182° |
| 2026-05-04 19:41 | 46.62220 | -3.68500 | 36994 ft | 451 kts | 182° |
| 2026-05-04 19:42 | 46.55937 | -3.68795 | 36997 ft | 451 kts | 182° |
| 2026-05-04 19:42 | 46.49664 | -3.69088 | 36998 ft | 451 kts | 182° |
| 2026-05-04 19:43 | 46.43393 | -3.69380 | 36994 ft | 451 kts | 182° |
| 2026-05-04 19:43 | 46.37129 | -3.69671 | 36998 ft | 450 kts | 182° |
| 2026-05-04 19:44 | 46.30865 | -3.70029 | 36999 ft | 450 kts | 185° |
| 2026-05-04 19:44 | 46.24638 | -3.70906 | 37005 ft | 449 kts | 186° |
| 2026-05-04 19:45 | 46.18422 | -3.71909 | 36999 ft | 449 kts | 186° |
| 2026-05-04 19:45 | 46.12207 | -3.72882 | 37003 ft | 449 kts | 186° |
| 2026-05-04 19:46 | 46.05995 | -3.73819 | 37004 ft | 449 kts | 186° |
| 2026-05-04 19:46 | 45.99786 | -3.74742 | 37002 ft | 449 kts | 186° |
| 2026-05-04 19:47 | 45.93571 | -3.75662 | 37006 ft | 449 kts | 186° |
| 2026-05-04 19:47 | 45.87363 | -3.76580 | 37005 ft | 448 kts | 186° |
| 2026-05-04 19:48 | 45.81155 | -3.77497 | 37007 ft | 448 kts | 186° |
| 2026-05-04 19:48 | 45.74946 | -3.78411 | 37005 ft | 448 kts | 186° |
| 2026-05-04 19:49 | 45.68743 | -3.79323 | 37006 ft | 448 kts | 186° |
| 2026-05-04 19:49 | 45.62542 | -3.80233 | 37004 ft | 448 kts | 186° |
| 2026-05-04 19:50 | 45.56342 | -3.81140 | 37004 ft | 448 kts | 186° |
| 2026-05-04 19:50 | 45.50141 | -3.82046 | 37010 ft | 448 kts | 187° |
| 2026-05-04 19:51 | 45.43948 | -3.82948 | 37008 ft | 447 kts | 187° |
| 2026-05-04 19:51 | 45.37756 | -3.83848 | 37011 ft | 447 kts | 187° |
| 2026-05-04 19:52 | 45.31601 | -3.84741 | 37009 ft | 447 kts | 187° |
| 2026-05-04 19:52 | 45.26415 | -3.85492 | 37016 ft | 447 kts | 187° |
| 2026-05-04 19:53 | 45.19222 | -3.86531 | 37016 ft | 448 kts | 187° |
| 2026-05-04 19:53 | 45.13027 | -3.87424 | 37019 ft | 448 kts | 187° |
| 2026-05-04 19:54 | 45.06825 | -3.88315 | 37018 ft | 448 kts | 187° |
| 2026-05-04 19:54 | 45.01622 | -3.89062 | 37019 ft | 449 kts | 187° |
| 2026-05-04 19:55 | 44.95405 | -3.89953 | 37018 ft | 449 kts | 187° |
| 2026-05-04 19:55 | 44.89230 | -3.90835 | 37018 ft | 449 kts | 187° |
| 2026-05-04 19:56 | 44.82970 | -3.91728 | 37016 ft | 449 kts | 187° |
| 2026-05-04 19:56 | 44.76791 | -3.92607 | 37022 ft | 449 kts | 187° |
| 2026-05-04 19:57 | 44.70570 | -3.93490 | 37018 ft | 449 kts | 187° |
| 2026-05-04 19:57 | 44.64354 | -3.94371 | 37022 ft | 449 kts | 187° |
| 2026-05-04 19:58 | 44.58132 | -3.95251 | 37014 ft | 449 kts | 187° |
| 2026-05-04 19:58 | 44.51918 | -3.96127 | 37016 ft | 449 kts | 187° |
| 2026-05-04 19:59 | 44.45704 | -3.97002 | 37022 ft | 448 kts | 187° |
| 2026-05-04 19:59 | 44.39499 | -3.97874 | 37020 ft | 448 kts | 187° |
| 2026-05-04 20:00 | 44.33293 | -3.98744 | 37030 ft | 448 kts | 187° |
| 2026-05-04 20:00 | 44.27082 | -3.99517 | 37033 ft | 448 kts | 186° |
| 2026-05-04 20:01 | 44.20864 | -4.00206 | 37027 ft | 448 kts | 186° |
| 2026-05-04 20:01 | 44.14646 | -4.00895 | 37016 ft | 448 kts | 187° |
| 2026-05-04 20:02 | 44.08433 | -4.01595 | 37031 ft | 448 kts | 187° |
| 2026-05-04 20:02 | 44.02217 | -4.02301 | 37030 ft | 448 kts | 187° |
| 2026-05-04 20:03 | 43.95996 | -4.03007 | 37031 ft | 449 kts | 187° |
| 2026-05-04 20:03 | 43.89775 | -4.03712 | 37031 ft | 448 kts | 187° |
| 2026-05-04 20:04 | 43.83556 | -4.04415 | 37028 ft | 449 kts | 187° |
| 2026-05-04 20:04 | 43.77332 | -4.05117 | 37031 ft | 449 kts | 187° |
| 2026-05-04 20:05 | 43.71111 | -4.05816 | 37031 ft | 448 kts | 187° |
| 2026-05-04 20:05 | 43.64940 | -4.06509 | 37035 ft | 448 kts | 187° |
| 2026-05-04 20:06 | 43.58727 | -4.07206 | 37043 ft | 448 kts | 187° |
| 2026-05-04 20:06 | 43.52527 | -4.07899 | 37039 ft | 447 kts | 187° |
| 2026-05-04 20:07 | 43.46320 | -4.08591 | 37048 ft | 447 kts | 187° |
| 2026-05-04 20:07 | 43.40122 | -4.09282 | 37050 ft | 447 kts | 187° |
| 2026-05-04 20:08 | 43.33919 | -4.09971 | 37042 ft | 447 kts | 187° |
| 2026-05-04 20:08 | 43.27715 | -4.10659 | 37059 ft | 447 kts | 187° |
| 2026-05-04 20:09 | 43.21516 | -4.11346 | 37059 ft | 447 kts | 187° |
| 2026-05-04 20:09 | 43.15304 | -4.12032 | 37033 ft | 448 kts | 188° |
| 2026-05-04 20:10 | 43.09090 | -4.12715 | 37043 ft | 448 kts | 188° |
| 2026-05-04 20:10 | 43.02886 | -4.13398 | 37051 ft | 448 kts | 188° |
| 2026-05-04 20:11 | 42.96665 | -4.14082 | 37060 ft | 448 kts | 188° |
| 2026-05-04 20:11 | 42.90452 | -4.14763 | 37049 ft | 448 kts | 188° |
| 2026-05-04 20:12 | 42.84226 | -4.15444 | 37053 ft | 449 kts | 188° |
| 2026-05-04 20:12 | 42.78003 | -4.16123 | 37048 ft | 449 kts | 188° |
| 2026-05-04 20:13 | 42.71818 | -4.16797 | 37047 ft | 449 kts | 188° |
| 2026-05-04 20:13 | 42.65591 | -4.17473 | 37051 ft | 449 kts | 188° |
| 2026-05-04 20:14 | 42.59360 | -4.18149 | 37037 ft | 449 kts | 188° |
| 2026-05-04 20:14 | 42.53139 | -4.18822 | 37019 ft | 449 kts | 188° |
| 2026-05-04 20:15 | 42.46916 | -4.19494 | 37033 ft | 448 kts | 189° |
| 2026-05-04 20:15 | 42.40695 | -4.20165 | 37024 ft | 448 kts | 189° |
| 2026-05-04 20:16 | 42.34477 | -4.20834 | 37023 ft | 448 kts | 189° |
| 2026-05-04 20:16 | 42.28259 | -4.21502 | 37016 ft | 448 kts | 189° |
| 2026-05-04 20:17 | 42.22048 | -4.22168 | 37018 ft | 448 kts | 189° |
| 2026-05-04 20:17 | 42.15837 | -4.22832 | 37015 ft | 448 kts | 189° |
| 2026-05-04 20:18 | 42.09621 | -4.23495 | 37003 ft | 447 kts | 189° |
| 2026-05-04 20:18 | 42.03418 | -4.24156 | 37005 ft | 447 kts | 189° |
| 2026-05-04 20:19 | 41.97220 | -4.24816 | 37009 ft | 447 kts | 189° |
| 2026-05-04 20:19 | 41.91023 | -4.25474 | 37005 ft | 447 kts | 189° |
| 2026-05-04 20:20 | 41.84832 | -4.26129 | 37003 ft | 446 kts | 189° |
| 2026-05-04 20:20 | 41.78684 | -4.26779 | 37007 ft | 446 kts | 189° |
| 2026-05-04 20:21 | 41.72462 | -4.27435 | 37004 ft | 446 kts | 189° |
| 2026-05-04 20:21 | 41.63235 | -4.28406 | 36994 ft | 445 kts | 190° |
| 2026-05-04 20:22 | 41.57072 | -4.29053 | 36998 ft | 444 kts | 190° |
| 2026-05-04 20:22 | 41.50920 | -4.29698 | 37003 ft | 443 kts | 190° |
| 2026-05-04 20:23 | 41.44769 | -4.30342 | 36993 ft | 442 kts | 190° |
| 2026-05-04 20:23 | 41.38637 | -4.30982 | 36995 ft | 442 kts | 190° |
| 2026-05-04 20:24 | 41.32509 | -4.31621 | 37005 ft | 442 kts | 190° |
| 2026-05-04 20:24 | 41.26381 | -4.32258 | 36979 ft | 441 kts | 191° |
| 2026-05-04 20:25 | 41.20264 | -4.32893 | 36993 ft | 441 kts | 191° |
| 2026-05-04 20:25 | 41.14146 | -4.33527 | 37005 ft | 441 kts | 191° |
| 2026-05-04 20:26 | 41.08029 | -4.34160 | 37008 ft | 441 kts | 191° |
| 2026-05-04 20:26 | 41.01912 | -4.34792 | 37006 ft | 441 kts | 191° |
| 2026-05-04 20:27 | 40.95794 | -4.35422 | 37005 ft | 441 kts | 191° |
| 2026-05-04 20:27 | 40.89680 | -4.36052 | 37007 ft | 441 kts | 191° |
| 2026-05-04 20:28 | 40.83554 | -4.36681 | 37004 ft | 442 kts | 191° |
| 2026-05-04 20:28 | 40.77428 | -4.37308 | 36998 ft | 442 kts | 191° |
| 2026-05-04 20:29 | 40.71292 | -4.37936 | 37003 ft | 442 kts | 191° |
| 2026-05-04 20:29 | 40.65164 | -4.38562 | 37012 ft | 442 kts | 191° |
| 2026-05-04 20:30 | 40.59032 | -4.39187 | 36999 ft | 442 kts | 191° |
| 2026-05-04 20:30 | 40.52889 | -4.39811 | 37006 ft | 442 kts | 191° |
| 2026-05-04 20:31 | 40.46750 | -4.40435 | 36996 ft | 443 kts | 191° |
| 2026-05-04 20:31 | 40.40610 | -4.41057 | 36994 ft | 443 kts | 191° |
| 2026-05-04 20:32 | 40.34468 | -4.41678 | 36988 ft | 442 kts | 191° |
| 2026-05-04 20:32 | 40.28328 | -4.42298 | 36990 ft | 443 kts | 191° |
| 2026-05-04 20:33 | 40.22184 | -4.42918 | 36988 ft | 443 kts | 191° |
| 2026-05-04 20:33 | 40.16087 | -4.43531 | 36968 ft | 442 kts | 192° |
| 2026-05-04 20:34 | 40.09952 | -4.44147 | 36983 ft | 442 kts | 192° |
| 2026-05-04 20:34 | 40.03884 | -4.44755 | 36983 ft | 442 kts | 192° |
| 2026-05-04 20:35 | 39.97753 | -4.45369 | 36987 ft | 442 kts | 192° |
| 2026-05-04 20:35 | 39.91619 | -4.45982 | 36975 ft | 441 kts | 192° |
| 2026-05-04 20:36 | 39.85503 | -4.46591 | 36985 ft | 441 kts | 192° |
| 2026-05-04 20:36 | 39.79377 | -4.47202 | 36980 ft | 441 kts | 192° |
| 2026-05-04 20:37 | 39.73249 | -4.47810 | 37005 ft | 441 kts | 192° |
| 2026-05-04 20:37 | 39.67132 | -4.48417 | 37000 ft | 441 kts | 192° |
| 2026-05-04 20:38 | 39.61012 | -4.49023 | 37004 ft | 441 kts | 192° |
| 2026-05-04 20:38 | 39.54894 | -4.49628 | 37016 ft | 441 kts | 192° |
| 2026-05-04 20:39 | 39.48766 | -4.50233 | 36962 ft | 442 kts | 192° |
| 2026-05-04 20:39 | 39.42638 | -4.50835 | 37000 ft | 441 kts | 192° |
| 2026-05-04 20:40 | 39.36529 | -4.51437 | 37014 ft | 441 kts | 192° |
| 2026-05-04 20:40 | 39.30398 | -4.52039 | 37009 ft | 441 kts | 192° |
| 2026-05-04 20:41 | 39.24277 | -4.52638 | 36993 ft | 441 kts | 192° |
| 2026-05-04 20:41 | 39.19192 | -4.53135 | 37008 ft | 441 kts | 193° |
| 2026-05-04 20:42 | 39.13073 | -4.53733 | 37017 ft | 441 kts | 193° |
| 2026-05-04 20:42 | 39.06951 | -4.54330 | 37029 ft | 441 kts | 193° |
| 2026-05-04 20:43 | 39.00841 | -4.54927 | 37010 ft | 439 kts | 193° |
| 2026-05-04 20:43 | 38.94742 | -4.55518 | 37025 ft | 439 kts | 193° |
| 2026-05-04 20:44 | 38.88735 | -4.56565 | 37029 ft | 434 kts | 198° |
| 2026-05-04 20:44 | 38.82782 | -4.57857 | 37026 ft | 434 kts | 198° |
| 2026-05-04 20:45 | 38.76824 | -4.59140 | 37025 ft | 434 kts | 198° |
| 2026-05-04 20:45 | 38.70859 | -4.60394 | 37031 ft | 434 kts | 198° |
| 2026-05-04 20:46 | 38.64933 | -4.61624 | 37027 ft | 435 kts | 198° |
| 2026-05-04 20:46 | 38.58920 | -4.62868 | 37028 ft | 435 kts | 198° |
| 2026-05-04 20:47 | 38.52998 | -4.64090 | 37024 ft | 434 kts | 198° |
| 2026-05-04 20:47 | 38.47037 | -4.65319 | 37029 ft | 434 kts | 198° |
| 2026-05-04 20:48 | 38.41082 | -4.66546 | 37028 ft | 434 kts | 198° |
| 2026-05-04 20:48 | 38.35124 | -4.67772 | 37021 ft | 434 kts | 198° |
| 2026-05-04 20:49 | 38.29164 | -4.68995 | 37033 ft | 434 kts | 198° |
| 2026-05-04 20:49 | 38.23275 | -4.70195 | 36639 ft | 422 kts | 198° |
| 2026-05-04 20:50 | 38.20403 | -4.70777 | 36300 ft | 416 kts | 198° |
| 2026-05-04 20:50 | 38.17567 | -4.71354 | 35925 ft | 411 kts | 198° |
| 2026-05-04 20:50 | 38.14755 | -4.71931 | 35524 ft | 407 kts | 198° |
| 2026-05-04 20:50 | 38.11971 | -4.72501 | 35133 ft | 404 kts | 199° |
| 2026-05-04 20:51 | 38.09201 | -4.73068 | 34715 ft | 401 kts | 198° |
| 2026-05-04 20:51 | 38.06465 | -4.73625 | 34447 ft | 395 kts | 198° |
| 2026-05-04 20:51 | 38.03739 | -4.74184 | 34236 ft | 402 kts | 199° |
| 2026-05-04 20:51 | 38.00937 | -4.74767 | 34016 ft | 414 kts | 198° |
| 2026-05-04 20:52 | 37.98056 | -4.75365 | 33767 ft | 426 kts | 198° |
| 2026-05-04 20:52 | 37.95098 | -4.75971 | 33520 ft | 437 kts | 198° |
| 2026-05-04 20:52 | 37.92053 | -4.76590 | 33261 ft | 447 kts | 197° |
| 2026-05-04 20:52 | 37.88957 | -4.77214 | 33007 ft | 453 kts | 197° |
| 2026-05-04 20:53 | 37.85843 | -4.77837 | 32741 ft | 453 kts | 197° |
| 2026-05-04 20:53 | 37.82730 | -4.78460 | 32431 ft | 453 kts | 197° |
| 2026-05-04 20:53 | 37.79617 | -4.79087 | 32173 ft | 453 kts | 197° |
| 2026-05-04 20:53 | 37.76505 | -4.79716 | 31913 ft | 453 kts | 197° |
| 2026-05-04 20:54 | 37.73398 | -4.80345 | 31663 ft | 452 kts | 197° |
| 2026-05-04 20:54 | 37.70292 | -4.80975 | 31411 ft | 452 kts | 197° |
| 2026-05-04 20:54 | 37.67182 | -4.81605 | 31166 ft | 452 kts | 197° |
| 2026-05-04 20:54 | 37.64078 | -4.82233 | 30564 ft | 452 kts | 197° |
| 2026-05-04 20:55 | 37.60989 | -4.82857 | 30076 ft | 446 kts | 197° |
| 2026-05-04 20:55 | 37.57934 | -4.83471 | 29440 ft | 442 kts | 197° |
| 2026-05-04 20:55 | 37.54920 | -4.84077 | 28904 ft | 436 kts | 196° |
| 2026-05-04 20:55 | 37.51940 | -4.84676 | 28364 ft | 431 kts | 196° |
| 2026-05-04 20:56 | 37.49002 | -4.85268 | 27828 ft | 426 kts | 196° |
| 2026-05-04 20:56 | 37.46090 | -4.85856 | 27302 ft | 421 kts | 196° |
| 2026-05-04 20:56 | 37.43212 | -4.86436 | 26777 ft | 417 kts | 196° |
| 2026-05-04 20:56 | 37.40358 | -4.87011 | 26261 ft | 413 kts | 196° |
| 2026-05-04 20:57 | 37.37531 | -4.87581 | 25708 ft | 410 kts | 196° |
| 2026-05-04 20:57 | 37.34728 | -4.88145 | 25219 ft | 406 kts | 196° |
| 2026-05-04 20:57 | 37.31946 | -4.88704 | 24734 ft | 403 kts | 195° |
| 2026-05-04 20:57 | 37.29185 | -4.89259 | 24242 ft | 401 kts | 195° |
| 2026-05-04 20:58 | 37.26467 | -4.89805 | 23735 ft | 400 kts | 195° |
| 2026-05-04 20:58 | 37.23691 | -4.90363 | 23146 ft | 398 kts | 195° |
| 2026-05-04 20:58 | 37.21000 | -4.90901 | 22607 ft | 395 kts | 195° |
| 2026-05-04 20:58 | 37.18257 | -4.91450 | 22096 ft | 392 kts | 195° |
| 2026-05-04 20:59 | 37.15617 | -4.91977 | 21589 ft | 388 kts | 195° |
| 2026-05-04 20:59 | 37.12964 | -4.92508 | 21085 ft | 385 kts | 195° |
| 2026-05-04 20:59 | 37.10327 | -4.93034 | 20615 ft | 381 kts | 194° |
| 2026-05-04 20:59 | 37.07713 | -4.93556 | 20129 ft | 379 kts | 194° |
| 2026-05-04 21:00 | 37.05112 | -4.93988 | 19639 ft | 379 kts | 189° |
| 2026-05-04 21:00 | 37.02441 | -4.93970 | 19007 ft | 385 kts | 183° |
| 2026-05-04 21:00 | 36.99768 | -4.93816 | 18482 ft | 384 kts | 182° |
| 2026-05-04 21:00 | 36.97102 | -4.93643 | 17945 ft | 382 kts | 182° |
| 2026-05-04 21:01 | 36.94461 | -4.93476 | 17417 ft | 379 kts | 182° |
| 2026-05-04 21:01 | 36.91838 | -4.93323 | 16908 ft | 375 kts | 182° |
| 2026-05-04 21:01 | 36.89242 | -4.93178 | 16428 ft | 372 kts | 183° |
| 2026-05-04 21:01 | 36.86666 | -4.93040 | 15936 ft | 369 kts | 182° |
| 2026-05-04 21:02 | 36.84110 | -4.92907 | 15463 ft | 366 kts | 183° |
| 2026-05-04 21:02 | 36.81579 | -4.92777 | 15014 ft | 363 kts | 183° |
| 2026-05-04 21:02 | 36.79066 | -4.92650 | 14548 ft | 361 kts | 183° |
| 2026-05-04 21:02 | 36.76565 | -4.92523 | 14094 ft | 359 kts | 183° |
| 2026-05-04 21:03 | 36.74073 | -4.92398 | 13605 ft | 357 kts | 183° |
| 2026-05-04 21:03 | 36.71595 | -4.92273 | 13091 ft | 355 kts | 182° |
| 2026-05-04 21:03 | 36.69133 | -4.92149 | 12622 ft | 353 kts | 182° |
| 2026-05-04 21:03 | 36.66693 | -4.92025 | 12154 ft | 350 kts | 182° |
| 2026-05-04 21:04 | 36.64267 | -4.91905 | 11692 ft | 348 kts | 182° |
| 2026-05-04 21:04 | 36.61856 | -4.91767 | 11235 ft | 346 kts | 182° |
| 2026-05-04 21:04 | 36.59487 | -4.91651 | 10950 ft | 339 kts | 182° |
| 2026-05-04 21:04 | 36.57142 | -4.91537 | 10811 ft | 329 kts | 182° |
| 2026-05-04 21:05 | 36.54876 | -4.91426 | 10647 ft | 323 kts | 183° |
| 2026-05-04 21:05 | 36.52609 | -4.91317 | 10551 ft | 333 kts | 182° |
| 2026-05-04 21:05 | 36.50271 | -4.91203 | 10403 ft | 339 kts | 182° |
| 2026-05-04 21:05 | 36.47914 | -4.91083 | 10256 ft | 338 kts | 182° |
| 2026-05-04 21:06 | 36.45576 | -4.90957 | 10095 ft | 336 kts | 182° |
| 2026-05-04 21:06 | 36.43235 | -4.90830 | 9753 ft | 339 kts | 182° |
| 2026-05-04 21:06 | 36.40876 | -4.90701 | 9384 ft | 339 kts | 181° |
| 2026-05-04 21:06 | 36.38530 | -4.90573 | 9010 ft | 336 kts | 182° |
| 2026-05-04 21:07 | 36.36214 | -4.90444 | 8671 ft | 331 kts | 183° |
| 2026-05-04 21:07 | 36.33913 | -4.90320 | 8344 ft | 331 kts | 182° |
| 2026-05-04 21:07 | 36.31614 | -4.90195 | 8005 ft | 330 kts | 182° |
| 2026-05-04 21:07 | 36.29317 | -4.90072 | 7678 ft | 330 kts | 181° |
| 2026-05-04 21:08 | 36.27027 | -4.89949 | 7336 ft | 329 kts | 179° |
| 2026-05-04 21:08 | 36.24774 | -4.89825 | 6992 ft | 318 kts | 180° |
| 2026-05-04 21:08 | 36.22609 | -4.89707 | 6644 ft | 305 kts | 181° |
| 2026-05-04 21:08 | 36.20523 | -4.89594 | 6292 ft | 294 kts | 181° |
| 2026-05-04 21:09 | 36.18512 | -4.89500 | 5953 ft | 283 kts | 184° |
| 2026-05-04 21:09 | 36.16664 | -4.90013 | 5651 ft | 266 kts | 210° |
| 2026-05-04 21:09 | 36.15326 | -4.91466 | 5442 ft | 251 kts | 239° |
| 2026-05-04 21:09 | 36.14795 | -4.93419 | 5266 ft | 238 kts | 266° |
| 2026-05-04 21:10 | 36.14912 | -4.95440 | 4759 ft | 241 kts | 280° |
| 2026-05-04 21:10 | 36.15254 | -4.97491 | 4241 ft | 243 kts | 284° |
| 2026-05-04 21:10 | 36.15667 | -4.99466 | 4102 ft | 227 kts | 285° |
| 2026-05-04 21:10 | 36.15862 | -5.01288 | 4107 ft | 204 kts | 275° |
| 2026-05-04 21:11 | 36.15980 | -5.02999 | 3818 ft | 198 kts | 277° |
| 2026-05-04 21:11 | 36.16006 | -5.04704 | 3430 ft | 196 kts | 272° |
| 2026-05-04 21:11 | 36.15966 | -5.06348 | 3167 ft | 188 kts | 270° |
| 2026-05-04 21:11 | 36.15931 | -5.07946 | 2979 ft | 176 kts | 271° |
| 2026-05-04 21:12 | 36.15909 | -5.09416 | 2866 ft | 167 kts | 271° |
| 2026-05-04 21:12 | 36.15837 | -5.10837 | 2795 ft | 163 kts | 269° |
| 2026-05-04 21:12 | 36.15768 | -5.12202 | 2919 ft | 157 kts | 271° |
| 2026-05-04 21:12 | 36.15700 | -5.13626 | 3014 ft | 167 kts | 271° |
| 2026-05-04 21:13 | 36.15643 | -5.15031 | 2958 ft | 158 kts | 272° |
| 2026-05-04 21:13 | 36.15607 | -5.16342 | 2762 ft | 148 kts | 273° |
| 2026-05-04 21:13 | 36.15578 | -5.17601 | 2477 ft | 145 kts | 274° |
| 2026-05-04 21:13 | 36.15561 | -5.18835 | 2250 ft | 140 kts | 272° |
| 2026-05-04 21:14 | 36.15534 | -5.20153 | 2341 ft | 166 kts | 272° |
| 2026-05-04 21:14 | 36.15508 | -5.21532 | 2445 ft | 153 kts | 272° |
| 2026-05-04 21:14 | 36.15464 | -5.22786 | 2219 ft | 136 kts | 271° |
| 2026-05-04 21:14 | 36.15433 | -5.23942 | 2001 ft | 136 kts | 272° |
| 2026-05-04 21:15 | 36.15435 | -5.25117 | 1733 ft | 134 kts | 273° |
| 2026-05-04 21:15 | 36.15415 | -5.26271 | 1362 ft | 133 kts | 269° |
| 2026-05-04 21:15 | 36.15367 | -5.27390 | 1093 ft | 128 kts | 269° |
| 2026-05-04 21:15 | 36.15325 | -5.28481 | 929 ft | 128 kts | 269° |
| 2026-05-04 21:16 | 36.15297 | -5.29598 | 767 ft | 131 kts | 269° |
| 2026-05-04 21:16 | 36.15260 | -5.30721 | 581 ft | 129 kts | 267° |
| 2026-05-04 21:16 | 36.15234 | -5.31819 | 388 ft | 130 kts | 268° |
| 2026-05-04 21:16 | 36.15185 | -5.32954 | 225 ft | 134 kts | 266° |
| 2026-05-04 21:17 | 36.15148 | -5.34087 | 45 ft | 131 kts | 267° |
| 2026-05-04 21:17 | 36.15115 | -5.35048 | 18 ft | 71 kts | 268° |
| 2026-05-04 21:17 | 36.15093 | -5.35345 | 20 ft | 9 kts | 250° |
| 2026-05-04 21:17 | 36.15109 | -5.35363 | 18 ft | 1 kts | 40° |
| 2026-05-04 21:18 | 36.15108 | -5.35320 | 18 ft | 11 kts | 91° |
| 2026-05-04 21:18 | 36.15111 | -5.35154 | 18 ft | 28 kts | 88° |
| 2026-05-04 21:18 | 36.15120 | -5.34889 | 18 ft | 32 kts | 88° |
| 2026-05-04 21:18 | 36.15131 | -5.34710 | 17 ft | 11 kts | 67° |
| 2026-05-04 21:19 | 36.15200 | -5.34683 | 17 ft | 11 kts | 1° |
| 2026-05-04 21:19 | 36.15235 | -5.34627 | 19 ft | 6 kts | 42° |
| 2026-05-04 21:19 | 36.15258 | -5.34584 | 17 ft | 7 kts | 18° |
| 2026-05-04 21:19 | 36.15300 | -5.34584 | 17 ft | 0 kts | 356° |